sensor_id;sensor_type;location;lat;lon;timestamp;pressure;altitude;pressure_sealevel;temperature;humidity
7168;BME280;3625;51.762;14.320;2022-09-09T00:00:59;100125.97;;;13.15;100.00
7168;BME280;3625;51.762;14.320;2022-09-09T00:03:40;100246.38;;;13.86;100.00
7168;BME280;3625;51.762;14.320;2022-09-09T00:06:19;100231.84;;;13.73;100.00
7168;BME280;3625;51.762;14.320;2022-09-09T00:09:02;100107.66;;;12.84;100.00
7168;BME280;3625;51.762;14.320;2022-09-09T00:11:40;100226.13;;;13.60;100.00
7168;BME280;3625;51.762;14.320;2022-09-09T00:14:22;100213.94;;;13.54;100.00
7168;BME280;3625;51.762;14.320;2022-09-09T00:17:01;100249.34;;;13.78;100.00
7168;BME280;3625;51.762;14.320;2022-09-09T00:19:40;100254.00;;;13.73;100.00
7168;BME280;3625;51.762;14.320;2022-09-09T00:22:17;100247.84;;;13.71;100.00
7168;BME280;3625;51.762;14.320;2022-09-09T00:24:52;100243.34;;;13.73;100.00
7168;BME280;3625;51.762;14.320;2022-09-09T00:27:29;100236.28;;;13.72;100.00
7168;BME280;3625;51.762;14.320;2022-09-09T00:30:15;100221.44;;;13.67;100.00
7168;BME280;3625;51.762;14.320;2022-09-09T00:32:48;100233.63;;;13.72;100.00
7168;BME280;3625;51.762;14.320;2022-09-09T00:35:23;100239.13;;;13.68;100.00
7168;BME280;3625;51.762;14.320;2022-09-09T00:37:56;100214.63;;;13.59;100.00
7168;BME280;3625;51.762;14.320;2022-09-09T00:40:33;100194.19;;;13.38;100.00
7168;BME280;3625;51.762;14.320;2022-09-09T00:43:24;100232.31;;;13.60;100.00
7168;BME280;3625;51.762;14.320;2022-09-09T00:46:21;100166.34;;;13.25;100.00
7168;BME280;3625;51.762;14.320;2022-09-09T00:49:05;100186.56;;;13.29;100.00
7168;BME280;3625;51.762;14.320;2022-09-09T00:51:52;100236.03;;;13.56;100.00
7168;BME280;3625;51.762;14.320;2022-09-09T00:54:43;100207.25;;;13.44;100.00
7168;BME280;3625;51.762;14.320;2022-09-09T00:57:25;100209.91;;;13.44;100.00
7168;BME280;3625;51.762;14.320;2022-09-09T01:00:17;100202.16;;;13.38;100.00
7168;BME280;3625;51.762;14.320;2022-09-09T01:03:00;100238.53;;;13.59;100.00
7168;BME280;3625;51.762;14.320;2022-09-09T01:05:45;100242.25;;;13.55;100.00
7168;BME280;3625;51.762;14.320;2022-09-09T01:08:38;100251.22;;;13.53;100.00
7168;BME280;3625;51.762;14.320;2022-09-09T01:11:20;100221.75;;;13.36;100.00
7168;BME280;3625;51.762;14.320;2022-09-09T01:13:58;100191.63;;;13.12;100.00
7168;BME280;3625;51.762;14.320;2022-09-09T01:16:33;100255.75;;;13.49;100.00
7168;BME280;3625;51.762;14.320;2022-09-09T01:19:07;100259.47;;;13.45;100.00
7168;BME280;3625;51.762;14.320;2022-09-09T01:21:52;100251.59;;;13.42;100.00
7168;BME280;3625;51.762;14.320;2022-09-09T01:24:34;100232.06;;;13.20;100.00
7168;BME280;3625;51.762;14.320;2022-09-09T01:27:27;100263.38;;;13.35;100.00
7168;BME280;3625;51.762;14.320;2022-09-09T01:29:57;100238.13;;;13.23;100.00
7168;BME280;3625;51.762;14.320;2022-09-09T01:32:42;100153.28;;;12.71;100.00
7168;BME280;3625;51.762;14.320;2022-09-09T01:35:28;100251.69;;;13.16;100.00
7168;BME280;3625;51.762;14.320;2022-09-09T01:38:01;100256.56;;;13.28;100.00
7168;BME280;3625;51.762;14.320;2022-09-09T01:40:31;100257.59;;;13.24;100.00
7168;BME280;3625;51.762;14.320;2022-09-09T01:43:02;100178.69;;;12.78;100.00
7168;BME280;3625;51.762;14.320;2022-09-09T01:45:32;100253.09;;;13.26;100.00
7168;BME280;3625;51.762;14.320;2022-09-09T01:48:02;100256.81;;;13.22;100.00
7168;BME280;3625;51.762;14.320;2022-09-09T01:50:43;100250.63;;;13.21;100.00
7168;BME280;3625;51.762;14.320;2022-09-09T01:53:14;100252.50;;;13.18;100.00
7168;BME280;3625;51.762;14.320;2022-09-09T01:55:55;100253.41;;;13.17;100.00
7168;BME280;3625;51.762;14.320;2022-09-09T01:58:57;100258.78;;;13.15;100.00
7168;BME280;3625;51.762;14.320;2022-09-09T02:01:44;100202.34;;;12.84;100.00
7168;BME280;3625;51.762;14.320;2022-09-09T02:04:32;100164.34;;;12.59;100.00
7168;BME280;3625;51.762;14.320;2022-09-09T02:07:32;100256.22;;;13.12;100.00
7168;BME280;3625;51.762;14.320;2022-09-09T02:10:12;100254.72;;;13.05;100.00
7168;BME280;3625;51.762;14.320;2022-09-09T02:13:00;100259.16;;;13.05;100.00
7168;BME280;3625;51.762;14.320;2022-09-09T02:15:40;100262.72;;;13.04;100.00
7168;BME280;3625;51.762;14.320;2022-09-09T02:18:15;100001.28;;;11.42;100.00
7168;BME280;3625;51.762;14.320;2022-09-09T02:20:49;100065.16;;;11.87;100.00
7168;BME280;3625;51.762;14.320;2022-09-09T02:23:20;100259.47;;;12.96;100.00
7168;BME280;3625;51.762;14.320;2022-09-09T02:25:55;100263.97;;;12.94;100.00
7168;BME280;3625;51.762;14.320;2022-09-09T02:28:30;100257.25;;;12.83;100.00
7168;BME280;3625;51.762;14.320;2022-09-09T02:31:02;100264.19;;;12.88;100.00
7168;BME280;3625;51.762;14.320;2022-09-09T02:33:43;100240.75;;;12.74;100.00
7168;BME280;3625;51.762;14.320;2022-09-09T02:36:16;100258.16;;;12.82;100.00
7168;BME280;3625;51.762;14.320;2022-09-09T02:38:47;100117.13;;;11.92;100.00
7168;BME280;3625;51.762;14.320;2022-09-09T02:41:31;100254.94;;;12.73;100.00
7168;BME280;3625;51.762;14.320;2022-09-09T02:44:01;100086.88;;;11.70;100.00
7168;BME280;3625;51.762;14.320;2022-09-09T02:47:09;100259.47;;;12.71;100.00
7168;BME280;3625;51.762;14.320;2022-09-09T02:49:56;100262.22;;;12.68;100.00
7168;BME280;3625;51.762;14.320;2022-09-09T02:52:41;100230.94;;;12.51;100.00
7168;BME280;3625;51.762;14.320;2022-09-09T02:55:22;100271.13;;;12.65;100.00
7168;BME280;3625;51.762;14.320;2022-09-09T02:57:56;100263.31;;;12.62;100.00
7168;BME280;3625;51.762;14.320;2022-09-09T03:00:28;100220.78;;;12.37;100.00
7168;BME280;3625;51.762;14.320;2022-09-09T03:03:02;100268.66;;;12.61;100.00
7168;BME280;3625;51.762;14.320;2022-09-09T03:05:33;100246.22;;;12.44;100.00
7168;BME280;3625;51.762;14.320;2022-09-09T03:08:03;100274.91;;;12.58;100.00
7168;BME280;3625;51.762;14.320;2022-09-09T03:10:33;100279.34;;;12.58;100.00
7168;BME280;3625;51.762;14.320;2022-09-09T03:13:03;100280.28;;;12.57;100.00
7168;BME280;3625;51.762;14.320;2022-09-09T03:15:37;100277.66;;;12.55;100.00
7168;BME280;3625;51.762;14.320;2022-09-09T03:18:09;100274.16;;;12.55;100.00
7168;BME280;3625;51.762;14.320;2022-09-09T03:20:38;100155.53;;;11.79;100.00
7168;BME280;3625;51.762;14.320;2022-09-09T03:23:10;100277.94;;;12.47;100.00
7168;BME280;3625;51.762;14.320;2022-09-09T03:25:47;100274.31;;;12.50;100.00
7168;BME280;3625;51.762;14.320;2022-09-09T03:28:20;100218.84;;;12.16;100.00
7168;BME280;3625;51.762;14.320;2022-09-09T03:30:50;100261.34;;;12.41;100.00
7168;BME280;3625;51.762;14.320;2022-09-09T03:33:20;100278.78;;;12.48;100.00
7168;BME280;3625;51.762;14.320;2022-09-09T03:35:49;100278.91;;;12.45;100.00
7168;BME280;3625;51.762;14.320;2022-09-09T03:38:20;100282.47;;;12.44;100.00
7168;BME280;3625;51.762;14.320;2022-09-09T03:40:50;100272.88;;;12.40;100.00
7168;BME280;3625;51.762;14.320;2022-09-09T03:43:24;100261.66;;;12.32;100.00
7168;BME280;3625;51.762;14.320;2022-09-09T03:45:54;100245.16;;;12.22;100.00
7168;BME280;3625;51.762;14.320;2022-09-09T03:48:27;100098.56;;;11.37;100.00
7168;BME280;3625;51.762;14.320;2022-09-09T03:50:57;100268.47;;;12.39;100.00
7168;BME280;3625;51.762;14.320;2022-09-09T03:53:31;100267.66;;;12.37;100.00
7168;BME280;3625;51.762;14.320;2022-09-09T03:56:02;100267.66;;;12.37;100.00
7168;BME280;3625;51.762;14.320;2022-09-09T03:58:31;100273.94;;;12.34;100.00
7168;BME280;3625;51.762;14.320;2022-09-09T04:01:09;100277.53;;;12.33;100.00
7168;BME280;3625;51.762;14.320;2022-09-09T04:03:44;100270.44;;;12.34;100.00
7168;BME280;3625;51.762;14.320;2022-09-09T04:06:14;100273.94;;;12.34;100.00
7168;BME280;3625;51.762;14.320;2022-09-09T04:08:46;100280.13;;;12.35;100.00
7168;BME280;3625;51.762;14.320;2022-09-09T04:11:16;100255.31;;;12.09;100.00
7168;BME280;3625;51.762;14.320;2022-09-09T04:14:01;100286.34;;;12.34;100.00
7168;BME280;3625;51.762;14.320;2022-09-09T04:16:31;100288.25;;;12.29;100.00
7168;BME280;3625;51.762;14.320;2022-09-09T04:19:16;100286.44;;;12.31;100.00
7168;BME280;3625;51.762;14.320;2022-09-09T04:21:45;100270.06;;;12.18;100.00
7168;BME280;3625;51.762;14.320;2022-09-09T04:24:24;100294.34;;;12.32;100.00
7168;BME280;3625;51.762;14.320;2022-09-09T04:26:58;100296.13;;;12.32;100.00
7168;BME280;3625;51.762;14.320;2022-09-09T04:29:28;100174.00;;;11.53;100.00
7168;BME280;3625;51.762;14.320;2022-09-09T04:31:57;100311.22;;;12.30;100.00
7168;BME280;3625;51.762;14.320;2022-09-09T04:34:27;100307.66;;;12.31;100.00
7168;BME280;3625;51.762;14.320;2022-09-09T04:36:59;100307.66;;;12.31;100.00
7168;BME280;3625;51.762;14.320;2022-09-09T04:39:28;100033.53;;;10.71;100.00
7168;BME280;3625;51.762;14.320;2022-09-09T04:41:59;100301.47;;;12.30;100.00
7168;BME280;3625;51.762;14.320;2022-09-09T04:44:29;100307.66;;;12.31;100.00
7168;BME280;3625;51.762;14.320;2022-09-09T04:46:59;100309.31;;;12.35;100.00
7168;BME280;3625;51.762;14.320;2022-09-09T04:49:29;100282.41;;;12.19;100.00
7168;BME280;3625;51.762;14.320;2022-09-09T04:52:01;100320.72;;;12.37;100.00
7168;BME280;3625;51.762;14.320;2022-09-09T04:54:31;100250.28;;;12.00;100.00
7168;BME280;3625;51.762;14.320;2022-09-09T04:57:00;100315.38;;;12.38;100.00
7168;BME280;3625;51.762;14.320;2022-09-09T04:59:29;100316.25;;;12.39;100.00
7168;BME280;3625;51.762;14.320;2022-09-09T05:02:03;100316.97;;;12.44;100.00
7168;BME280;3625;51.762;14.320;2022-09-09T05:04:41;100213.63;;;11.85;100.00
7168;BME280;3625;51.762;14.320;2022-09-09T05:07:12;100315.84;;;12.51;100.00
7168;BME280;3625;51.762;14.320;2022-09-09T05:09:42;100314.94;;;12.52;100.00
7168;BME280;3625;51.762;14.320;2022-09-09T05:12:16;100235.09;;;12.05;100.00
7168;BME280;3625;51.762;14.320;2022-09-09T05:14:50;100317.44;;;12.57;100.00
7168;BME280;3625;51.762;14.320;2022-09-09T05:17:19;100317.34;;;12.60;100.00
7168;BME280;3625;51.762;14.320;2022-09-09T05:19:49;100282.34;;;12.47;100.00
7168;BME280;3625;51.762;14.320;2022-09-09T05:22:19;100262.31;;;12.38;100.00
7168;BME280;3625;51.762;14.320;2022-09-09T05:24:53;100311.47;;;12.76;100.00
7168;BME280;3625;51.762;14.320;2022-09-09T05:27:22;100279.31;;;12.59;100.00
7168;BME280;3625;51.762;14.320;2022-09-09T05:29:51;100266.34;;;12.50;100.00
7168;BME280;3625;51.762;14.320;2022-09-09T05:32:20;100227.16;;;12.32;100.00
7168;BME280;3625;51.762;14.320;2022-09-09T05:34:50;100306.69;;;12.88;100.00
7168;BME280;3625;51.762;14.320;2022-09-09T05:37:20;100310.13;;;12.90;100.00
7168;BME280;3625;51.762;14.320;2022-09-09T05:39:56;100311.81;;;12.92;100.00
7168;BME280;3625;51.762;14.320;2022-09-09T05:42:30;100197.31;;;12.25;100.00
7168;BME280;3625;51.762;14.320;2022-09-09T05:45:05;100309.03;;;12.97;100.00
7168;BME280;3625;51.762;14.320;2022-09-09T05:47:35;100241.25;;;12.60;100.00
7168;BME280;3625;51.762;14.320;2022-09-09T05:50:11;100305.91;;;13.09;100.00
7168;BME280;3625;51.762;14.320;2022-09-09T05:52:56;100310.13;;;13.16;100.00
7168;BME280;3625;51.762;14.320;2022-09-09T05:55:32;100317.03;;;13.21;100.00
7168;BME280;3625;51.762;14.320;2022-09-09T05:58:03;100198.78;;;12.60;100.00
7168;BME280;3625;51.762;14.320;2022-09-09T06:00:35;100316.63;;;13.32;100.00
7168;BME280;3625;51.762;14.320;2022-09-09T06:03:09;100322.63;;;13.39;100.00
7168;BME280;3625;51.762;14.320;2022-09-09T06:05:57;100324.81;;;13.51;100.00
7168;BME280;3625;51.762;14.320;2022-09-09T06:08:27;100317.59;;;13.54;100.00
7168;BME280;3625;51.762;14.320;2022-09-09T06:11:09;100205.47;;;12.97;100.00
7168;BME280;3625;51.762;14.320;2022-09-09T06:13:38;100300.78;;;13.54;100.00
7168;BME280;3625;51.762;14.320;2022-09-09T06:16:11;100131.72;;;12.55;100.00
7168;BME280;3625;51.762;14.320;2022-09-09T06:18:42;100307.31;;;13.69;100.00
7168;BME280;3625;51.762;14.320;2022-09-09T06:21:17;100341.66;;;13.98;100.00
7168;BME280;3625;51.762;14.320;2022-09-09T06:23:48;100310.91;;;13.91;100.00
7168;BME280;3625;51.762;14.320;2022-09-09T06:26:19;100344.41;;;14.18;100.00
7168;BME280;3625;51.762;14.320;2022-09-09T06:28:51;100343.88;;;14.32;100.00
7168;BME280;3625;51.762;14.320;2022-09-09T06:31:26;100345.09;;;14.47;100.00
7168;BME280;3625;51.762;14.320;2022-09-09T06:34:04;100347.34;;;14.57;100.00
7168;BME280;3625;51.762;14.320;2022-09-09T06:36:38;100342.31;;;14.71;100.00
7168;BME280;3625;51.762;14.320;2022-09-09T06:39:08;100291.69;;;14.51;100.00
7168;BME280;3625;51.762;14.320;2022-09-09T06:41:42;100342.16;;;14.96;100.00
7168;BME280;3625;51.762;14.320;2022-09-09T06:44:34;100317.53;;;14.91;100.00
7168;BME280;3625;51.762;14.320;2022-09-09T06:47:06;100344.03;;;15.15;100.00
7168;BME280;3625;51.762;14.320;2022-09-09T06:49:35;100340.31;;;15.19;100.00
7168;BME280;3625;51.762;14.320;2022-09-09T06:52:09;100346.06;;;15.30;100.00
7168;BME280;3625;51.762;14.320;2022-09-09T06:54:38;100349.19;;;15.39;100.00
7168;BME280;3625;51.762;14.320;2022-09-09T06:57:09;100275.16;;;15.05;100.00
7168;BME280;3625;51.762;14.320;2022-09-09T07:00:03;100270.22;;;15.17;100.00
7168;BME280;3625;51.762;14.320;2022-09-09T07:02:34;100158.91;;;14.64;100.00
7168;BME280;3625;51.762;14.320;2022-09-09T07:05:15;100157.50;;;14.76;100.00
7168;BME280;3625;51.762;14.320;2022-09-09T07:07:48;100061.94;;;14.29;100.00
7168;BME280;3625;51.762;14.320;2022-09-09T07:10:19;100333.13;;;16.00;100.00
7168;BME280;3625;51.762;14.320;2022-09-09T07:12:56;100233.25;;;15.48;100.00
7168;BME280;3625;51.762;14.320;2022-09-09T07:15:30;100183.81;;;15.41;100.00
7168;BME280;3625;51.762;14.320;2022-09-09T07:18:02;100350.84;;;16.57;100.00
7168;BME280;3625;51.762;14.320;2022-09-09T07:20:37;100340.88;;;16.80;100.00
7168;BME280;3625;51.762;14.320;2022-09-09T07:23:13;100183.50;;;16.22;100.00
7168;BME280;3625;51.762;14.320;2022-09-09T07:25:46;100338.06;;;17.52;100.00
7168;BME280;3625;51.762;14.320;2022-09-09T07:28:19;100347.94;;;17.84;100.00
7168;BME280;3625;51.762;14.320;2022-09-09T07:30:56;100350.25;;;18.23;100.00
7168;BME280;3625;51.762;14.320;2022-09-09T07:33:34;100078.75;;;17.02;100.00
7168;BME280;3625;51.762;14.320;2022-09-09T07:36:14;100261.75;;;18.56;100.00
7168;BME280;3625;51.762;14.320;2022-09-09T07:38:54;100078.50;;;17.85;100.00
7168;BME280;3625;51.762;14.320;2022-09-09T07:41:32;100164.41;;;18.85;100.00
7168;BME280;3625;51.762;14.320;2022-09-09T07:44:10;100285.78;;;19.90;100.00
7168;BME280;3625;51.762;14.320;2022-09-09T07:46:46;100352.28;;;20.70;100.00
7168;BME280;3625;51.762;14.320;2022-09-09T07:49:23;100237.19;;;20.36;100.00
7168;BME280;3625;51.762;14.320;2022-09-09T07:52:03;100244.31;;;20.76;100.00
7168;BME280;3625;51.762;14.320;2022-09-09T07:54:36;100350.63;;;21.61;100.00
7168;BME280;3625;51.762;14.320;2022-09-09T07:57:13;100263.69;;;21.21;100.00
7168;BME280;3625;51.762;14.320;2022-09-09T07:59:42;100355.25;;;21.84;100.00
7168;BME280;3625;51.762;14.320;2022-09-09T08:02:16;100271.75;;;21.46;100.00
7168;BME280;3625;51.762;14.320;2022-09-09T08:04:51;100321.09;;;21.84;100.00
7168;BME280;3625;51.762;14.320;2022-09-09T08:07:24;100250.88;;;21.50;100.00
7168;BME280;3625;51.762;14.320;2022-09-09T08:10:01;100262.72;;;21.60;100.00
7168;BME280;3625;51.762;14.320;2022-09-09T08:12:36;100349.31;;;22.17;100.00
7168;BME280;3625;51.762;14.320;2022-09-09T08:15:11;100114.16;;;21.04;100.00
7168;BME280;3625;51.762;14.320;2022-09-09T08:17:43;100375.84;;;22.59;100.00
7168;BME280;3625;51.762;14.320;2022-09-09T08:20:15;100366.09;;;22.33;100.00
7168;BME280;3625;51.762;14.320;2022-09-09T08:22:44;100228.47;;;21.36;100.00
7168;BME280;3625;51.762;14.320;2022-09-09T08:25:15;100163.09;;;20.71;96.30
7168;BME280;3625;51.762;14.320;2022-09-09T08:27:44;100383.16;;;21.96;100.00
7168;BME280;3625;51.762;14.320;2022-09-09T08:30:22;100246.06;;;20.90;95.25
7168;BME280;3625;51.762;14.320;2022-09-09T08:32:51;100396.56;;;21.45;94.84
7168;BME280;3625;51.762;14.320;2022-09-09T08:35:22;100393.41;;;21.26;94.55
7168;BME280;3625;51.762;14.320;2022-09-09T08:37:54;100399.22;;;21.05;100.00
7168;BME280;3625;51.762;14.320;2022-09-09T08:40:34;100271.00;;;20.11;96.45
7168;BME280;3625;51.762;14.320;2022-09-09T08:43:09;100226.56;;;19.79;99.32
7168;BME280;3625;51.762;14.320;2022-09-09T08:45:54;100011.41;;;18.32;95.32
7168;BME280;3625;51.762;14.320;2022-09-09T08:48:47;100373.56;;;20.46;98.57
7168;BME280;3625;51.762;14.320;2022-09-09T08:51:26;100276.78;;;19.91;100.00
7168;BME280;3625;51.762;14.320;2022-09-09T08:53:58;100274.97;;;19.91;98.17
7168;BME280;3625;51.762;14.320;2022-09-09T08:56:36;100221.91;;;19.54;98.82
7168;BME280;3625;51.762;14.320;2022-09-09T08:59:22;100387.09;;;20.45;99.00
7168;BME280;3625;51.762;14.320;2022-09-09T09:02:15;100067.44;;;18.65;99.27
7168;BME280;3625;51.762;14.320;2022-09-09T09:05:11;100244.13;;;19.70;96.12
7168;BME280;3625;51.762;14.320;2022-09-09T09:08:06;100148.06;;;19.04;96.33
7168;BME280;3625;51.762;14.320;2022-09-09T09:10:46;100375.19;;;20.49;97.09
7168;BME280;3625;51.762;14.320;2022-09-09T09:13:31;100256.09;;;19.79;98.00
7168;BME280;3625;51.762;14.320;2022-09-09T09:16:21;100270.34;;;19.93;97.07
7168;BME280;3625;51.762;14.320;2022-09-09T09:18:55;100077.03;;;18.83;95.70
7168;BME280;3625;51.762;14.320;2022-09-09T09:21:45;100270.34;;;19.93;94.29
7168;BME280;3625;51.762;14.320;2022-09-09T09:24:20;100213.34;;;19.62;93.12
7168;BME280;3625;51.762;14.320;2022-09-09T09:26:51;100381.84;;;20.70;92.62
7168;BME280;3625;51.762;14.320;2022-09-09T09:29:26;100369.72;;;20.77;94.07
7168;BME280;3625;51.762;14.320;2022-09-09T09:31:58;100204.59;;;19.86;93.56
7168;BME280;3625;51.762;14.320;2022-09-09T09:34:30;100363.97;;;20.83;92.73
7168;BME280;3625;51.762;14.320;2022-09-09T09:37:12;100281.31;;;20.31;91.96
7168;BME280;3625;51.762;14.320;2022-09-09T09:39:53;100254.78;;;20.13;91.36
7168;BME280;3625;51.762;14.320;2022-09-09T09:42:34;100047.53;;;18.97;90.96
7168;BME280;3625;51.762;14.320;2022-09-09T09:45:23;100184.84;;;19.87;89.30
7168;BME280;3625;51.762;14.320;2022-09-09T09:48:05;100125.25;;;19.68;89.01
7168;BME280;3625;51.762;14.320;2022-09-09T09:51:00;100120.13;;;19.78;88.77
7168;BME280;3625;51.762;14.320;2022-09-09T09:53:39;100374.69;;;21.37;84.50
7168;BME280;3625;51.762;14.320;2022-09-09T09:56:15;100234.16;;;20.67;86.44
7168;BME280;3625;51.762;14.320;2022-09-09T09:58:51;100274.38;;;20.95;85.72
7168;BME280;3625;51.762;14.320;2022-09-09T10:01:34;100094.66;;;19.98;82.49
7168;BME280;3625;51.762;14.320;2022-09-09T10:04:17;100397.81;;;21.92;81.14
7168;BME280;3625;51.762;14.320;2022-09-09T10:06:57;100261.94;;;21.20;78.51
7168;BME280;3625;51.762;14.320;2022-09-09T10:09:37;100272.91;;;21.17;75.56
7168;BME280;3625;51.762;14.320;2022-09-09T10:12:25;100101.34;;;20.17;77.64
7168;BME280;3625;51.762;14.320;2022-09-09T10:15:07;100357.53;;;22.03;78.89
7168;BME280;3625;51.762;14.320;2022-09-09T10:18:12;100058.34;;;20.82;75.25
7168;BME280;3625;51.762;14.320;2022-09-09T10:21:36;100177.47;;;21.84;75.12
7168;BME280;3625;51.762;14.320;2022-09-09T10:24:54;100095.31;;;21.78;73.19
7168;BME280;3625;51.762;14.320;2022-09-09T10:27:50;100282.50;;;23.40;66.29
7168;BME280;3625;51.762;14.320;2022-09-09T10:30:47;100324.88;;;24.30;68.61
7168;BME280;3625;51.762;14.320;2022-09-09T10:33:49;100272.72;;;24.39;63.93
7168;BME280;3625;51.762;14.320;2022-09-09T10:36:26;100119.06;;;23.58;61.49
7168;BME280;3625;51.762;14.320;2022-09-09T10:39:12;100043.84;;;22.98;63.56
7168;BME280;3625;51.762;14.320;2022-09-09T10:42:00;100104.44;;;23.05;63.48
7168;BME280;3625;51.762;14.320;2022-09-09T10:44:59;100111.78;;;22.80;58.72
7168;BME280;3625;51.762;14.320;2022-09-09T10:48:05;100121.09;;;22.52;57.92
7168;BME280;3625;51.762;14.320;2022-09-09T10:51:17;100162.84;;;22.71;58.20
7168;BME280;3625;51.762;14.320;2022-09-09T10:54:46;100260.13;;;23.26;63.16
7168;BME280;3625;51.762;14.320;2022-09-09T10:58:11;100090.75;;;22.27;61.67
7168;BME280;3625;51.762;14.320;2022-09-09T11:00:56;100146.78;;;22.69;63.59
7168;BME280;3625;51.762;14.320;2022-09-09T11:03:52;100280.38;;;23.67;61.46
7168;BME280;3625;51.762;14.320;2022-09-09T11:06:37;100093.53;;;22.60;58.71
7168;BME280;3625;51.762;14.320;2022-09-09T11:09:19;100183.31;;;23.19;60.20
7168;BME280;3625;51.762;14.320;2022-09-09T11:12:00;100084.84;;;22.68;58.59
7168;BME280;3625;51.762;14.320;2022-09-09T11:14:40;100337.38;;;24.42;59.33
7168;BME280;3625;51.762;14.320;2022-09-09T11:17:26;100327.06;;;24.36;58.76
7168;BME280;3625;51.762;14.320;2022-09-09T11:20:10;100262.66;;;24.07;58.08
7168;BME280;3625;51.762;14.320;2022-09-09T11:22:50;100096.84;;;23.32;58.42
7168;BME280;3625;51.762;14.320;2022-09-09T11:25:57;100329.16;;;24.98;58.22
7168;BME280;3625;51.762;14.320;2022-09-09T11:28:57;100320.06;;;24.99;55.93
7168;BME280;3625;51.762;14.320;2022-09-09T11:31:46;100317.69;;;25.05;56.53
7168;BME280;3625;51.762;14.320;2022-09-09T11:34:50;100173.16;;;23.79;54.61
7168;BME280;3625;51.762;14.320;2022-09-09T11:46:51;100226.75;;;22.23;62.17
7168;BME280;3625;51.762;14.320;2022-09-09T11:49:42;100113.53;;;21.26;62.87
7168;BME280;3625;51.762;14.320;2022-09-09T11:52:40;100213.38;;;21.72;65.82
7168;BME280;3625;51.762;14.320;2022-09-09T11:55:27;100216.56;;;21.90;65.80
7168;BME280;3625;51.762;14.320;2022-09-09T11:58:17;100057.44;;;21.32;61.42
7168;BME280;3625;51.762;14.320;2022-09-09T12:00:50;100296.63;;;22.97;60.95
7168;BME280;3625;51.762;14.320;2022-09-09T12:03:50;100203.69;;;23.12;61.41
7168;BME280;3625;51.762;14.320;2022-09-09T12:06:31;100207.28;;;23.80;59.29
7168;BME280;3625;51.762;14.320;2022-09-09T12:09:17;100161.16;;;24.15;55.43
7168;BME280;3625;51.762;14.320;2022-09-09T12:12:05;100139.97;;;24.31;52.26
7168;BME280;3625;51.762;14.320;2022-09-09T12:14:53;100178.22;;;24.58;52.75
7168;BME280;3625;51.762;14.320;2022-09-09T12:17:30;100377.19;;;25.48;54.13
7168;BME280;3625;51.762;14.320;2022-09-09T12:20:13;100370.75;;;24.97;54.16
7168;BME280;3625;51.762;14.320;2022-09-09T12:23:21;100367.53;;;24.26;56.22
7168;BME280;3625;51.762;14.320;2022-09-09T12:26:21;100360.78;;;23.63;57.14
7168;BME280;3625;51.762;14.320;2022-09-09T12:29:14;100284.81;;;22.87;58.93
7168;BME280;3625;51.762;14.320;2022-09-09T12:32:03;100171.72;;;22.01;60.50
7168;BME280;3625;51.762;14.320;2022-09-09T12:34:39;100359.31;;;23.01;61.49
7168;BME280;3625;51.762;14.320;2022-09-09T12:37:29;100099.28;;;21.36;61.36
7168;BME280;3625;51.762;14.320;2022-09-09T12:40:06;100152.53;;;21.57;62.49
7168;BME280;3625;51.762;14.320;2022-09-09T12:42:45;100274.88;;;22.03;63.21
7168;BME280;3625;51.762;14.320;2022-09-09T12:45:19;100338.53;;;22.30;64.25
7168;BME280;3625;51.762;14.320;2022-09-09T12:47:56;100335.06;;;22.15;64.85
7168;BME280;3625;51.762;14.320;2022-09-09T12:50:32;100332.94;;;22.07;65.47
7168;BME280;3625;51.762;14.320;2022-09-09T12:53:20;100053.50;;;20.37;63.83
7168;BME280;3625;51.762;14.320;2022-09-09T12:56:03;100335.75;;;22.06;64.72
7168;BME280;3625;51.762;14.320;2022-09-09T12:58:35;100323.88;;;21.96;65.25
7168;BME280;3625;51.762;14.320;2022-09-09T13:01:06;100332.06;;;21.94;65.85
7168;BME280;3625;51.762;14.320;2022-09-09T13:03:43;100199.63;;;21.00;66.42
7168;BME280;3625;51.762;14.320;2022-09-09T13:06:30;100325.84;;;21.68;67.33
7168;BME280;3625;51.762;14.320;2022-09-09T13:09:03;100315.06;;;21.56;68.08
7168;BME280;3625;51.762;14.320;2022-09-09T13:11:39;100337.25;;;21.72;68.17
7168;BME280;3625;51.762;14.320;2022-09-09T13:14:20;100177.00;;;21.03;67.36
7168;BME280;3625;51.762;14.320;2022-09-09T13:17:01;100334.88;;;22.18;66.44
7168;BME280;3625;51.762;14.320;2022-09-09T13:19:36;100335.38;;;22.36;65.89
7168;BME280;3625;51.762;14.320;2022-09-09T13:22:16;100278.56;;;22.26;65.16
7168;BME280;3625;51.762;14.320;2022-09-09T13:25:06;100324.09;;;22.91;64.18
7168;BME280;3625;51.762;14.320;2022-09-09T13:27:58;100157.34;;;22.13;62.55
7168;BME280;3625;51.762;14.320;2022-09-09T13:30:32;100175.69;;;22.32;62.50
7168;BME280;3625;51.762;14.320;2022-09-09T13:33:21;100317.31;;;23.20;62.55
7168;BME280;3625;51.762;14.320;2022-09-09T13:36:08;100256.50;;;22.92;62.76
7168;BME280;3625;51.762;14.320;2022-09-09T13:38:52;100308.50;;;23.29;62.78
7168;BME280;3625;51.762;14.320;2022-09-09T13:41:36;100319.34;;;23.41;62.92
7168;BME280;3625;51.762;14.320;2022-09-09T13:44:20;100159.06;;;22.38;62.37
7168;BME280;3625;51.762;14.320;2022-09-09T13:47:19;100296.41;;;23.00;63.24
7168;BME280;3625;51.762;14.320;2022-09-09T13:49:50;100252.81;;;22.70;64.28
7168;BME280;3625;51.762;14.320;2022-09-09T13:52:19;100199.25;;;22.41;64.96
7168;BME280;3625;51.762;14.320;2022-09-09T13:54:53;100284.59;;;23.01;65.27
7168;BME280;3625;51.762;14.320;2022-09-09T13:57:27;100252.94;;;22.92;65.46
7168;BME280;3625;51.762;14.320;2022-09-09T13:59:58;100290.69;;;23.16;64.43
7168;BME280;3625;51.762;14.320;2022-09-09T14:02:33;100147.47;;;22.25;65.15
7168;BME280;3625;51.762;14.320;2022-09-09T14:05:02;100291.88;;;23.12;65.27